Flight Track Log - Related Links

Times and Time Zones

All times are in EDT time to prevent confusion due to time zone crossing. See the TAM3591 flight status page for this flight to view local times or setup timezone preferences in your user account.

Time Position Orientation Groundspeed Altitude Reporting Facility
EDT Latitude Longitude Course Direction KTS MPH feet Rate Location/Type
Wed 07:56:03 PM -15.8680 -47.9200 284° West  Level FlightAware ADS-B
Wed 08:59:00 PM -15.9750 -48.0673 233° Southwest  Level Estimated
Wed 08:59:41 PM -15.8690 -47.9180 233° Southwest 30 35  Level FlightAware ADS-B
Wed 09:00:26 PM -15.8680 -47.9160 63° Northeast 29 33 374 Level FlightAware ADS-B
Wed 09:00:54 PM -15.8670 -47.9160 360° North 16 18 399 Level FlightAware ADS-B
Wed 09:01:23 PM -15.8650 -47.9160 360° North 24 28 417 Level FlightAware ADS-B
Wed 09:02:13 PM -15.8650 -47.9190 270° West 15 17 437 Level FlightAware ADS-B
Wed 09:02:39 PM -15.8650 -47.9210 270° West 32 37 477 Level FlightAware ADS-B
Wed 09:03:23 PM -15.8650 -47.9240 270° West 15 17 500 Level FlightAware ADS-B
Wed 09:03:35 PM -15.8650 -47.9250 270° West 30 35 545 Level FlightAware ADS-B
Wed 09:04:25 PM -15.8650 -47.9270 270° West 559 Level FlightAware ADS-B
Wed 09:07:00 PM -16.0021 -48.1185 233° Southwest  Level Estimated
Wed 09:07:30 PM -15.8660 -47.9270 233° Southwest 16 18  Level FlightAware ADS-B
Wed 09:07:42 PM -15.8650 -47.9280 316° Northwest 19 22 1,114 Level FlightAware ADS-B
Wed 09:10:00 PM -15.9871 -48.0984 233° Southwest  Level Estimated
Wed 09:10:30 PM -15.8630 -47.9250 233° Southwest 56 64  Level FlightAware ADS-B
Wed 09:10:51 PM -15.8630 -47.9150 90° East 140 161 4,632 Level FlightAware ADS-B
Wed 09:11:27 PM -15.8610 -47.8850 86° East 167 192 4,400 5,063 Climbing FlightAware ADS-B
Wed 09:11:55 PM -15.8600 -47.8630 87° East 163 188 5,400 2,118 Climbing FlightAware ADS-B
Wed 09:12:01 PM -15.8600 -47.8580 90° East 165 190 5,600 1,714 Climbing FlightAware ADS-B
Wed 09:12:23 PM -15.8690 -47.8430 122° Southeast 183 211 6,200 1,263 Climbing FlightAware ADS-B
Wed 09:12:39 PM -15.8820 -47.8400 167° South 203 234 6,400 1,154 Climbing FlightAware ADS-B
Wed 09:13:15 PM -15.9210 -47.8410 181° South 246 283 7,200 1,412 Climbing FlightAware ADS-B
Wed 09:13:47 PM -15.9600 -47.8420 181° South 281 323 8,000 2,000 Climbing FlightAware ADS-B
Wed 09:14:15 PM -15.9970 -47.8480 189° South 294 338 9,200 2,400 Climbing FlightAware ADS-B
Wed 09:14:27 PM -16.0090 -47.8590 221° Southwest 294 338 9,600 842 Climbing FlightAware ADS-B
Wed 09:15:12 PM -16.0480 -47.9140 234° Southwest 350 403 10,000 320 Climbing FlightAware ADS-B
Wed 09:15:42 PM -16.0750 -47.9540 235° Southwest 371 427 10,000 2,323 Level FlightAware ADS-B
Wed 09:16:14 PM -16.1160 -48.0140 235° Southwest 392 451 12,400 4,709 Climbing FlightAware ADS-B
Wed 09:17:01 PM -16.1660 -48.0780 231° Southwest 341 392 16,200 3,279 Climbing FlightAware ADS-B
Wed 09:17:40 PM -16.2020 -48.1180 227° Southwest 330 380 17,100 1,379 Climbing FlightAware ADS-B
Wed 09:18:28 PM -16.2420 -48.1840 238° Southwest 347 399 18,200 786 Climbing FlightAware ADS-B
Wed 09:19:04 PM -16.2700 -48.2260 235° Southwest 347 399 18,200  Level FlightAware ADS-B
Wed 09:19:52 PM -16.3080 -48.2820 235° Southwest 347 399 18,200  Level FlightAware ADS-B
Wed 09:20:28 PM -16.3360 -48.3240 235° Southwest 347 399 18,200  Level FlightAware ADS-B
Wed 09:21:04 PM -16.3640 -48.3660 235° Southwest 347 399 18,200  Level FlightAware ADS-B
Wed 09:21:52 PM -16.4020 -48.4220 235° Southwest 347 399 18,200 371 Level FlightAware ADS-B
Wed 09:24:00 PM -16.5117 -48.5832 235° Southwest  Level Estimated
Wed 09:25:00 PM -16.5632 -48.6588 235° Southwest  Level Estimated
Wed 09:26:00 PM -16.6145 -48.7344 235° Southwest  Level Estimated
Wed 09:27:00 PM -16.6659 -48.8101 235° Southwest  Level Estimated
Wed 09:28:00 PM -16.7172 -48.8858 235° Southwest  Level Estimated
Wed 09:29:00 PM -16.7685 -48.9616 235° Southwest  Level Estimated
Wed 09:30:00 PM -16.8198 -49.0374 235° Southwest  Level Estimated
Wed 09:31:00 PM -16.8710 -49.1133 235° Southwest  Level Estimated
Wed 09:32:00 PM -16.9222 -49.1892 235° Southwest  Level Estimated
Wed 09:33:00 PM -16.9734 -49.2651 235° Southwest  Level Estimated
Wed 09:34:00 PM -17.0245 -49.3411 235° Southwest  Level Estimated
Wed 09:35:00 PM -17.0757 -49.4171 235° Southwest  Level Estimated
Wed 09:36:00 PM -17.1268 -49.4932 235° Southwest  Level Estimated
Wed 09:37:00 PM -17.1778 -49.5693 235° Southwest  Level Estimated
Wed 09:38:00 PM -17.2289 -49.6454 235° Southwest  Level Estimated
Wed 09:39:00 PM -17.2799 -49.7216 235° Southwest  Level Estimated
Wed 09:40:00 PM -17.3309 -49.7978 235° Southwest  Level Estimated
Wed 09:41:00 PM -17.3818 -49.8741 235° Southwest  Level Estimated
Wed 09:42:00 PM -17.4327 -49.9504 235° Southwest  Level Estimated
Wed 09:43:00 PM -17.4836 -50.0267 235° Southwest  Level Estimated
Wed 09:44:00 PM -17.5345 -50.1031 235° Southwest  Level Estimated
Wed 09:45:00 PM -17.5854 -50.1796 235° Southwest  Level Estimated
Wed 09:46:00 PM -17.6362 -50.2561 235° Southwest  Level Estimated
Wed 09:47:00 PM -17.6869 -50.3326 235° Southwest  Level Estimated
Wed 09:48:00 PM -17.7377 -50.4092 235° Southwest  Level Estimated
Wed 09:49:00 PM -17.7884 -50.4858 235° Southwest  Level Estimated
Wed 09:50:00 PM -17.8391 -50.5624 235° Southwest  Level Estimated
Wed 09:51:00 PM -17.8898 -50.6391 235° Southwest  Level Estimated
Wed 09:52:00 PM -17.9404 -50.7159 235° Southwest  Level Estimated
Wed 09:53:00 PM -17.9910 -50.7927 235° Southwest  Level Estimated
Wed 09:54:00 PM -18.0416 -50.8695 235° Southwest  Level Estimated
Wed 09:55:00 PM -18.0921 -50.9464 235° Southwest  Level Estimated
Wed 09:56:00 PM -18.1426 -51.0233 235° Southwest  Level Estimated
Wed 09:57:00 PM -18.1931 -51.1003 235° Southwest  Level Estimated
Wed 09:58:00 PM -18.2435 -51.1773 235° Southwest  Level Estimated
Wed 09:58:13 PM -18.8100 -52.0580 235° Southwest 393 452 32,000  Level FlightAware ADS-B
Wed 09:58:54 PM -18.8460 -52.1120 235° Southwest 393 452 32,000  Level FlightAware ADS-B
Wed 09:59:00 PM -18.2940 -51.2543 235° Southwest  Level Estimated
Wed 09:59:36 PM -18.8940 -52.1880 236° Southwest 391 450 32,000  Level FlightAware ADS-B
Wed 10:00:16 PM -18.9340 -52.2510 236° Southwest 391 450 32,000  Level FlightAware ADS-B
Wed 10:00:52 PM -18.9730 -52.3100 235° Southwest 390 449 32,000  Level FlightAware ADS-B
Wed 10:01:38 PM -19.0180 -52.3820 237° Southwest 389 448 32,000  Level FlightAware ADS-B
Wed 10:02:17 PM -19.0570 -52.4410 235° Southwest 389 448 32,000  Level FlightAware ADS-B
Wed 10:02:54 PM -19.0960 -52.5020 236° Southwest 389 448 32,000  Level FlightAware ADS-B
Wed 10:03:35 PM -19.1360 -52.5650 236° Southwest 389 448 32,000  Level FlightAware ADS-B
Wed 10:04:16 PM -19.1780 -52.6300 236° Southwest 388 447 32,000  Level FlightAware ADS-B
Wed 10:04:52 PM -19.2140 -52.6880 237° Southwest 387 445 32,000  Level FlightAware ADS-B
Wed 10:05:38 PM -19.2580 -52.7630 238° Southwest 386 444 32,000  Level FlightAware ADS-B
Wed 10:06:18 PM -19.2950 -52.8250 238° Southwest 387 445 32,000  Level FlightAware ADS-B
Wed 10:07:02 PM -19.3390 -52.8980 237° Southwest 387 445 32,000  Level FlightAware ADS-B
Wed 10:07:44 PM -19.3790 -52.9650 238° Southwest 386 444 32,000  Level FlightAware ADS-B
Wed 10:08:24 PM -19.4170 -53.0280 237° Southwest 387 445 32,000  Level FlightAware ADS-B
Wed 10:09:04 PM -19.4530 -53.0900 238° Southwest 386 444 32,000  Level FlightAware ADS-B
Wed 10:09:49 PM -19.4970 -53.1640 238° Southwest 385 443 32,000  Level FlightAware ADS-B
Wed 10:10:28 PM -19.5350 -53.2260 237° Southwest 385 443 32,000 -444 Level FlightAware ADS-B
Wed 10:11:10 PM -19.5760 -53.2970 238° Southwest 409 471 31,400 -1,465 Descending FlightAware ADS-B
Wed 10:11:54 PM -19.6210 -53.3720 237° Southwest 417 480 29,900 -1,953 Descending FlightAware ADS-B
Wed 10:12:36 PM -19.6640 -53.4440 238° Southwest 392 451 28,600 -2,296 Descending FlightAware ADS-B
Wed 10:13:15 PM -19.7000 -53.5050 238° Southwest 385 443 26,800 -2,442 Descending FlightAware ADS-B
Wed 10:14:02 PM -19.7380 -53.5700 238° Southwest 374 430 25,100 -2,386 Descending FlightAware ADS-B
Wed 10:14:43 PM -19.7800 -53.6410 238° Southwest 362 417 23,300 -2,430 Descending FlightAware ADS-B
Wed 10:15:21 PM -19.8140 -53.6980 238° Southwest 351 404 21,900 -2,096 Descending FlightAware ADS-B
Wed 10:16:06 PM -19.8520 -53.7620 238° Southwest 338 389 20,400 -1,926 Descending FlightAware ADS-B
Wed 10:16:42 PM -19.8810 -53.8120 238° Southwest 327 376 19,300 -1,792 Descending FlightAware ADS-B
Wed 10:17:23 PM -19.9140 -53.8680 238° Southwest 317 365 18,100 -1,704 Descending FlightAware ADS-B
Wed 10:18:03 PM -19.9450 -53.9210 238° Southwest 346 398 17,000 -1,421 Descending FlightAware ADS-B
Wed 10:18:39 PM -19.9770 -53.9760 238° Southwest 355 409 16,300 -1,125 Descending FlightAware ADS-B
Wed 10:19:23 PM -20.0140 -54.0380 238° Southwest 322 371 15,500 -857 Descending FlightAware ADS-B
Wed 10:20:03 PM -20.0430 -54.0880 238° Southwest 292 336 15,100 -525 Descending FlightAware ADS-B
Wed 10:20:43 PM -20.0700 -54.1340 238° Southwest 264 304 14,800 -500 Descending FlightAware ADS-B
Wed 10:21:27 PM -20.0980 -54.1810 238° Southwest 235 270 14,400 -545 Descending FlightAware ADS-B
Wed 10:22:11 PM -20.1200 -54.2200 239° Southwest 209 241 14,000 -558 Descending FlightAware ADS-B
Wed 10:22:53 PM -20.1410 -54.2550 237° Southwest 187 215 13,600 -649 Descending FlightAware ADS-B
Wed 10:23:25 PM -20.1550 -54.2790 238° Southwest 172 198 13,200 -923 Descending FlightAware ADS-B
Wed 10:24:11 PM -20.1740 -54.3120 238° Southwest 164 189 12,400 -977 Descending FlightAware ADS-B
Wed 10:24:51 PM -20.1890 -54.3380 238° Southwest 158 182 11,800 -947 Descending FlightAware ADS-B
Wed 10:25:27 PM -20.2030 -54.3630 239° Southwest 152 175 11,200 -1,658 Descending FlightAware ADS-B
Wed 10:26:07 PM -20.2200 -54.3910 237° Southwest 186 214 9,700 -2,029 Descending FlightAware ADS-B
Wed 10:26:35 PM -20.2330 -54.4130 238° Southwest 203 234 8,900 -1,500 Descending FlightAware ADS-B
Wed 10:27:03 PM -20.2470 -54.4370 238° Southwest 201 231 8,300 -1,200 Descending FlightAware ADS-B
Wed 10:27:15 PM -20.2530 -54.4470 237° Southwest 198 228 8,100 -1,050 Descending FlightAware ADS-B
Wed 10:27:43 PM -20.2660 -54.4700 239° Southwest 194 223 7,600 -1,034 Descending FlightAware ADS-B
Wed 10:28:13 PM -20.2820 -54.4930 233° Southwest 186 214 7,100 -1,043 Descending FlightAware ADS-B
Wed 10:28:29 PM -20.2920 -54.5020 220° Southwest 182 209 6,800 -1,364 Descending FlightAware ADS-B
Wed 10:28:57 PM -20.3090 -54.5190 223° Southwest 184 212 6,100 -1,800 Descending FlightAware ADS-B
Wed 10:29:09 PM -20.3160 -54.5260 223° Southwest 186 214 5,600 -1,800 Descending FlightAware ADS-B
Wed 10:29:37 PM -20.3340 -54.5440 223° Southwest 180 207 4,900 -1,393 Descending FlightAware ADS-B
Wed 10:30:05 PM -20.3510 -54.5590 220° Southwest 161 185 4,300 -1,050 Descending FlightAware ADS-B
Wed 10:30:17 PM -20.3570 -54.5650 223° Southwest 152 175 4,200 -706 Descending FlightAware ADS-B
Wed 10:30:39 PM -20.3690 -54.5760 221° Southwest 145 167 3,900 -792 Descending FlightAware ADS-B
Wed 10:31:10 PM -20.3830 -54.5900 223° Southwest 144 166 3,500 -737 Descending FlightAware ADS-B
Wed 10:31:36 PM -20.3960 -54.6020 221° Southwest 135 155 3,200 -679 Descending FlightAware ADS-B
Wed 10:32:03 PM -20.4080 -54.6150 225° Southwest 130 150 2,900 -737 Descending FlightAware ADS-B
Wed 10:32:33 PM -20.4220 -54.6280 221° Southwest 132 152 2,500 -724 Descending FlightAware ADS-B
Wed 10:33:01 PM -20.4350 -54.6400 221° Southwest 133 153 2,200 -643 Descending FlightAware ADS-B
Wed 10:33:29 PM -20.4480 -54.6520 221° Southwest 133 153 1,900 -732 Descending FlightAware ADS-B
Wed 10:33:42 PM -20.4540 -54.6580 223° Southwest 135 155 1,700 -923 Descending FlightAware ADS-B
Wed 10:34:10 PM -20.4670 -54.6710 223° Southwest 115 132 -3,643 Descending FlightAware ADS-B
Wed 10:35:03 PM -20.4690 -54.6750 242° Southwest 26 30  Level FlightAware ADS-B
Wed 10:35:34 PM -20.4670 -54.6740 25° Northeast 17 20  Level FlightAware ADS-B
Wed 10:36:02 PM -20.4660 -54.6720 62° Northeast 17 20  Level FlightAware ADS-B
Wed 10:36:14 PM -20.4650 -54.6720 360° North 17 20  Level FlightAware ADS-B
Wed 10:36:47 PM -20.4630 -54.6700 43° Northeast 18 21  Level FlightAware ADS-B
Wed 10:37:14 PM -20.4610 -54.6680 43° Northeast 18 21  Level FlightAware ADS-B
Wed 10:37:27 PM -20.4610 -54.6670 90° East 17 20  Level FlightAware ADS-B
Wed 10:38:11 PM -20.4580 -54.6670 360° North 29 33  Level FlightAware ADS-B
Wed 10:38:18 PM -20.4580 -54.6680 270° West 29 33  Level FlightAware ADS-B
Wed 10:41:00 PM -20.4687 -54.6725 202° Southwest  Level Estimated
Wed 10:42:00 PM -20.4687 -54.6725 343° North  Level Estimated
Wed 10:43:00 PM -20.4687 -54.6725 343° North  Level Estimated
Wed 10:44:00 PM -20.4687 -54.6725 343° North  Level Estimated
Wed 10:45:00 PM -20.4687 -54.6725 343° North  Level Estimated
Wed 10:46:00 PM -20.4687 -54.6725 343° North  Level Estimated
Wed 10:47:00 PM -20.4687 -54.6725 343° North  Level Estimated
Wed 10:48:00 PM -20.4687 -54.6725 343° North  Level Estimated
Wed 10:49:00 PM -20.4687 -54.6725 343° North  Level Estimated
Wed 10:50:00 PM -20.4687 -54.6725 343° North  Level Estimated
Wed 10:51:00 PM -20.4687 -54.6725 343° North  Level Estimated
Wed 10:52:00 PM -20.4687 -54.6725 343° North  Level Estimated
Wed 10:53:00 PM -20.4687 -54.6725 343° North  Level Estimated
Wed 10:54:00 PM -20.4687 -54.6725 343° North  Level Estimated
Wed 10:55:00 PM -20.4687 -54.6725 343° North  Level Estimated
Wed 10:56:00 PM -20.4687 -54.6725 343° North  Level Estimated
Wed 10:57:00 PM -20.4687 -54.6725 343° North  Level Estimated
Wed 10:58:00 PM -20.4687 -54.6725 343° North  Level Estimated
Wed 10:59:00 PM -20.4687 -54.6725 343° North  Level Estimated
Wed 11:00:00 PM -20.4687 -54.6725 343° North  Level Estimated
Wed 11:01:00 PM -20.4687 -54.6725 343° North  Level Estimated
Wed 11:02:00 PM -20.4687 -54.6725 343° North  Level Estimated
Wed 11:03:00 PM -20.4687 -54.6725 343° North  Level Estimated
Wed 11:04:00 PM -20.4687 -54.6725 343° North  Level Estimated
Wed 11:05:00 PM -20.4687 -54.6725 343° North  Level Estimated

Login

Don't have an account? Register now (free) for customized features, flight alerts, and more!